Mesa Verde National Park, Colorado
Current Conditions -  °F | °C
As of 1:53 AM on Monday 22 Dec 2014 (Local Time) from KCEZ Reporting Station
Clear Clear  
Wind Chill: 25°   Ceiling: Unl
Heat Index: 31°   Visibility: 10mi
Dew Point: 28°   Wind: 6mph
Humidity: 89%   Direction: 20°NNE
Pressure: 29.96"   Gusts: NA
Location:  37.1877°N, 108.492°W
Report Text: KCEZ 220853Z AUTO 02005KT 10SM CLR M01/M02 A2996 RMK AO2 SLP132 T10061022 58004
Loading
Personal Weather Stations






























Interactive Weather Map New forecast layout! Learn more

10-Day Weather Forecast

Advertisements
Track Severe Weather on mobile